createdAt,value
2018-12-14T00:00:41.556Z,19.10
2018-12-14T00:01:41.566Z,19.40
2018-12-14T00:02:41.571Z,18.70
2018-12-14T00:03:41.688Z,19.10
2018-12-14T00:04:41.792Z,18.60
2018-12-14T00:05:41.603Z,19.70
2018-12-14T00:06:41.594Z,20.00
2018-12-14T00:07:41.613Z,20.30
2018-12-14T00:08:41.652Z,19.50
2018-12-14T00:09:42.578Z,18.70
2018-12-14T00:10:41.633Z,18.20
2018-12-14T00:11:45.585Z,18.70
2018-12-14T00:12:41.692Z,18.80
2018-12-14T00:13:41.673Z,19.60
2018-12-14T00:14:41.736Z,18.10
2018-12-14T00:15:41.658Z,18.10
2018-12-14T00:16:41.624Z,16.90
2018-12-14T00:17:41.628Z,16.80
2018-12-14T00:18:41.639Z,16.40
2018-12-14T00:19:41.749Z,16.40
2018-12-14T00:20:41.646Z,17.50
2018-12-14T00:21:41.638Z,17.10
2018-12-14T00:22:41.641Z,17.40
2018-12-14T00:23:41.675Z,17.10
2018-12-14T00:24:41.668Z,17.30
2018-12-14T00:25:41.686Z,17.30
2018-12-14T00:26:41.654Z,17.10
2018-12-14T00:27:41.664Z,16.70
2018-12-14T00:28:41.993Z,15.90
2018-12-14T00:29:41.717Z,15.60
2018-12-14T00:30:41.659Z,15.50
2018-12-14T00:31:41.838Z,16.40
2018-12-14T00:32:41.660Z,15.50
2018-12-14T00:33:41.716Z,15.40
2018-12-14T00:34:42.500Z,15.60
2018-12-14T00:35:42.213Z,15.50
2018-12-14T00:36:41.887Z,15.30
2018-12-14T00:37:41.967Z,15.90
2018-12-14T00:38:41.695Z,16.40
2018-12-14T00:39:41.885Z,16.50
2018-12-14T00:40:41.723Z,17.20
2018-12-14T00:41:41.794Z,17.60
2018-12-14T00:42:41.752Z,18.90
2018-12-14T00:43:41.700Z,18.50
2018-12-14T00:44:41.722Z,17.30
2018-12-14T00:45:41.719Z,16.10
2018-12-14T00:46:41.726Z,16.20
2018-12-14T00:47:41.730Z,16.40
2018-12-14T00:48:41.705Z,16.70
2018-12-14T00:49:41.720Z,17.40
2018-12-14T00:50:41.727Z,16.70
2018-12-14T00:51:41.739Z,16.00
2018-12-14T00:52:41.750Z,16.40
2018-12-14T00:53:41.887Z,17.30
2018-12-14T00:54:41.816Z,16.60
2018-12-14T00:55:41.764Z,17.50
2018-12-14T00:56:41.807Z,17.30
2018-12-14T00:57:41.789Z,17.10
2018-12-14T00:58:41.731Z,16.70
2018-12-14T00:59:41.763Z,16.70
2018-12-14T01:00:41.749Z,16.60
2018-12-14T01:01:41.811Z,16.50
2018-12-14T01:02:41.756Z,16.20
2018-12-14T01:03:41.817Z,16.20
2018-12-14T01:04:41.837Z,16.80
2018-12-14T01:05:50.489Z,16.30
2018-12-14T01:06:43.770Z,16.40
2018-12-14T01:07:41.843Z,17.80
2018-12-14T01:08:43.971Z,17.30
2018-12-14T01:09:46.563Z,17.20
2018-12-14T01:10:41.981Z,16.50
2018-12-14T01:11:42.733Z,16.00
2018-12-14T01:12:42.303Z,16.20
2018-12-14T01:13:43.325Z,16.40
2018-12-14T01:14:42.806Z,16.90
2018-12-14T01:15:47.992Z,16.70
2018-12-14T01:16:41.974Z,17.10
2018-12-14T01:17:41.900Z,17.20
2018-12-14T01:18:41.884Z,17.50
2018-12-14T01:19:41.838Z,18.30
2018-12-14T01:20:41.836Z,18.30
2018-12-14T01:21:41.827Z,19.00
2018-12-14T01:22:41.832Z,18.00
2018-12-14T01:23:41.845Z,17.40
2018-12-14T01:24:41.959Z,17.70
2018-12-14T01:25:41.842Z,18.00
2018-12-14T01:26:41.861Z,19.00
2018-12-14T01:27:41.838Z,18.40
2018-12-14T01:28:41.838Z,17.70
2018-12-14T01:29:41.847Z,16.70
2018-12-14T01:30:41.852Z,17.50
2018-12-14T01:31:41.847Z,17.20
2018-12-14T01:32:41.869Z,17.70
2018-12-14T01:33:41.864Z,17.90
2018-12-14T01:34:41.861Z,18.30
2018-12-14T01:35:41.888Z,18.40
2018-12-14T01:36:41.890Z,17.20
2018-12-14T01:37:41.878Z,17.80
2018-12-14T01:38:41.893Z,17.80
2018-12-14T01:39:41.907Z,18.20
2018-12-14T01:40:42.044Z,17.90
2018-12-14T01:41:41.903Z,17.20
2018-12-14T01:42:41.881Z,17.70
2018-12-14T01:43:41.894Z,17.60
2018-12-14T01:44:41.882Z,18.10
2018-12-14T01:45:41.899Z,18.10
2018-12-14T01:46:41.944Z,19.30
2018-12-14T01:47:41.930Z,18.10
2018-12-14T01:48:41.925Z,18.50
2018-12-14T01:49:41.929Z,17.10
2018-12-14T01:50:41.921Z,18.10
2018-12-14T01:51:41.935Z,17.80
2018-12-14T01:52:41.934Z,17.20
2018-12-14T01:53:41.939Z,17.70
2018-12-14T01:54:41.952Z,18.50
2018-12-14T01:55:41.920Z,18.40
2018-12-14T01:56:41.972Z,18.50
2018-12-14T01:57:41.929Z,18.00
2018-12-14T01:58:41.931Z,17.10
2018-12-14T01:59:41.939Z,18.10
2018-12-14T02:00:42.621Z,17.60
2018-12-14T02:01:41.970Z,17.10
2018-12-14T02:02:42.009Z,18.40
2018-12-14T02:03:41.966Z,17.30
2018-12-14T02:04:41.972Z,17.60
2018-12-14T02:05:41.971Z,17.10
2018-12-14T02:06:41.977Z,17.20
2018-12-14T02:07:42.003Z,17.90
2018-12-14T02:08:42.004Z,18.50
2018-12-14T02:09:41.989Z,18.50
2018-12-14T02:10:41.971Z,17.90
2018-12-14T02:11:41.970Z,18.20
2018-12-14T02:12:41.973Z,19.20
2018-12-14T02:13:42.020Z,17.70
2018-12-14T02:14:42.031Z,17.70
2018-12-14T02:15:42.059Z,18.40
2018-12-14T02:16:42.013Z,18.60
2018-12-14T02:17:42.015Z,18.60
2018-12-14T02:18:42.018Z,18.40
2018-12-14T02:19:42.035Z,18.70
2018-12-14T02:20:42.017Z,18.10
2018-12-14T02:21:42.093Z,18.50
2018-12-14T02:22:42.050Z,18.50
2018-12-14T02:23:42.055Z,18.40
2018-12-14T02:24:42.025Z,18.80
2018-12-14T02:25:42.021Z,18.90
2018-12-14T02:26:42.015Z,19.00
2018-12-14T02:27:42.037Z,18.80
2018-12-14T02:28:42.030Z,18.70
2018-12-14T02:29:42.043Z,19.20
2018-12-14T02:30:42.196Z,18.80
2018-12-14T02:31:42.061Z,18.20
2018-12-14T02:32:42.076Z,19.00
2018-12-14T02:33:42.216Z,18.80
2018-12-14T02:34:42.070Z,18.60
2018-12-14T02:35:42.068Z,18.50
2018-12-14T02:36:42.123Z,19.10
2018-12-14T02:37:42.040Z,18.60
2018-12-14T02:38:42.065Z,18.80
2018-12-14T02:39:42.071Z,19.60
2018-12-14T02:40:42.066Z,19.00
2018-12-14T02:41:42.079Z,19.80
2018-12-14T02:42:42.101Z,19.40
2018-12-14T02:43:42.082Z,18.80
2018-12-14T02:44:42.108Z,19.20
2018-12-14T02:45:42.105Z,18.60
2018-12-14T02:46:42.096Z,18.60
2018-12-14T02:47:42.109Z,18.70
2018-12-14T02:48:42.126Z,19.50
2018-12-14T02:49:42.108Z,19.90
2018-12-14T02:50:42.094Z,18.80
2018-12-14T02:51:42.119Z,18.90
2018-12-14T02:52:42.139Z,19.70
2018-12-14T02:53:42.137Z,19.10
2018-12-14T02:54:42.109Z,19.50
2018-12-14T02:55:42.129Z,20.50
2018-12-14T02:56:42.112Z,20.00
2018-12-14T02:57:42.133Z,19.80
2018-12-14T02:58:42.127Z,19.60
2018-12-14T02:59:42.122Z,19.60
2018-12-14T03:00:42.131Z,19.20
2018-12-14T03:01:42.314Z,19.30
2018-12-14T03:02:42.165Z,20.10
2018-12-14T03:03:42.139Z,19.40
2018-12-14T03:04:42.149Z,20.00
2018-12-14T03:05:42.131Z,20.40
2018-12-14T03:06:42.154Z,20.60
2018-12-14T03:07:42.159Z,20.70
2018-12-14T03:08:42.211Z,25.90
2018-12-14T03:09:42.208Z,20.50
2018-12-14T03:10:42.164Z,20.80
2018-12-14T03:11:42.172Z,19.70
2018-12-14T03:12:42.170Z,20.50
2018-12-14T03:13:42.160Z,20.30
2018-12-14T03:14:42.147Z,19.90
2018-12-14T03:15:42.218Z,20.60
2018-12-14T03:16:42.193Z,19.50
2018-12-14T03:17:42.171Z,20.60
2018-12-14T03:18:42.211Z,20.20
2018-12-14T03:19:42.189Z,20.00
2018-12-14T03:20:42.222Z,20.70
2018-12-14T03:21:42.201Z,20.10
2018-12-14T03:22:42.198Z,21.30
2018-12-14T03:23:42.240Z,20.20
2018-12-14T03:24:42.202Z,20.50
2018-12-14T03:25:42.260Z,21.30
2018-12-14T03:26:42.200Z,20.70
2018-12-14T03:27:42.226Z,20.40
2018-12-14T03:28:42.233Z,21.00
2018-12-14T03:29:42.276Z,21.20
2018-12-14T03:30:42.241Z,21.20
2018-12-14T03:31:42.244Z,21.20
2018-12-14T03:32:42.415Z,20.30
2018-12-14T03:33:42.240Z,20.60
2018-12-14T03:34:42.258Z,20.30
2018-12-14T03:35:42.222Z,21.40
2018-12-14T03:36:42.359Z,20.60
2018-12-14T03:37:42.239Z,21.00
2018-12-14T03:38:42.244Z,20.80
2018-12-14T03:39:42.286Z,20.10
2018-12-14T03:40:42.278Z,21.20
2018-12-14T03:41:42.287Z,21.50
2018-12-14T03:42:42.249Z,22.20
2018-12-14T03:43:42.287Z,21.40
2018-12-14T03:44:42.262Z,21.20
2018-12-14T03:45:42.286Z,21.70
2018-12-14T03:46:42.299Z,21.50
2018-12-14T03:47:42.317Z,22.00
2018-12-14T03:48:42.278Z,22.20
2018-12-14T03:49:42.274Z,21.60
2018-12-14T03:50:42.279Z,21.30
2018-12-14T03:51:42.314Z,21.70
2018-12-14T03:52:42.287Z,21.80
2018-12-14T03:53:42.305Z,20.80
2018-12-14T03:54:42.298Z,20.80
2018-12-14T03:55:42.300Z,20.60
2018-12-14T03:56:42.300Z,21.20
2018-12-14T03:57:42.296Z,20.30
2018-12-14T03:58:42.343Z,21.30
2018-12-14T03:59:42.288Z,21.50
2018-12-14T04:00:42.392Z,21.50
2018-12-14T04:01:42.371Z,21.50
2018-12-14T04:02:42.349Z,21.10
2018-12-14T04:03:42.304Z,21.20
2018-12-14T04:04:42.389Z,21.20
2018-12-14T04:05:42.343Z,21.40
2018-12-14T04:06:42.339Z,20.60
2018-12-14T04:07:42.346Z,21.20
2018-12-14T04:08:42.359Z,21.50
2018-12-14T04:09:42.397Z,21.00
2018-12-14T04:10:42.404Z,21.90
2018-12-14T04:11:42.376Z,21.00
2018-12-14T04:12:42.356Z,21.20
2018-12-14T04:13:42.338Z,21.80
2018-12-14T04:14:42.375Z,21.30
2018-12-14T04:15:42.375Z,21.70
2018-12-14T04:16:42.351Z,23.40
2018-12-14T04:17:42.358Z,21.40
2018-12-14T04:18:42.400Z,21.40
2018-12-14T04:19:42.422Z,22.00
2018-12-14T04:20:42.361Z,22.10
2018-12-14T04:21:42.392Z,21.80
2018-12-14T04:22:42.403Z,21.80
2018-12-14T04:23:42.365Z,21.50
2018-12-14T04:24:42.372Z,22.90
2018-12-14T04:25:42.527Z,21.90
2018-12-14T04:26:42.397Z,22.10
2018-12-14T04:27:42.376Z,22.70
2018-12-14T04:28:42.411Z,22.80
2018-12-14T04:29:42.385Z,23.20
2018-12-14T04:30:42.396Z,22.80
2018-12-14T04:31:42.428Z,22.60
2018-12-14T04:32:42.406Z,22.80
2018-12-14T04:33:42.400Z,21.60
2018-12-14T04:34:42.401Z,22.60
2018-12-14T04:35:42.427Z,22.50
2018-12-14T04:36:42.485Z,22.20
2018-12-14T04:37:42.397Z,21.50
2018-12-14T04:38:42.439Z,21.40
2018-12-14T04:39:42.445Z,21.30
2018-12-14T04:40:42.457Z,22.20
2018-12-14T04:41:42.417Z,22.40
2018-12-14T04:42:48.757Z,22.00
2018-12-14T04:43:42.432Z,21.00
2018-12-14T04:44:42.433Z,22.40
2018-12-14T04:45:42.470Z,22.40
2018-12-14T04:46:42.480Z,22.10
2018-12-14T04:47:42.447Z,23.40
2018-12-14T04:48:42.447Z,22.40
2018-12-14T04:49:42.451Z,22.60
2018-12-14T04:50:42.485Z,22.50
2018-12-14T04:51:42.449Z,22.60
2018-12-14T04:52:42.439Z,23.20
2018-12-14T04:53:42.478Z,23.70
2018-12-14T04:54:42.466Z,22.90
2018-12-14T04:55:42.460Z,23.00
2018-12-14T04:56:42.491Z,23.30
2018-12-14T04:57:42.493Z,24.40
2018-12-14T04:58:42.477Z,23.90
2018-12-14T04:59:42.474Z,24.70
2018-12-14T05:00:42.503Z,24.40
2018-12-14T05:01:42.479Z,24.70
2018-12-14T05:02:42.498Z,24.70
2018-12-14T05:03:42.519Z,23.80
2018-12-14T05:04:42.485Z,25.00
2018-12-14T05:05:42.496Z,25.50
2018-12-14T05:06:42.637Z,25.40
2018-12-14T05:07:42.507Z,24.90
2018-12-14T05:08:42.520Z,25.10
2018-12-14T05:09:42.500Z,26.20
2018-12-14T05:10:42.535Z,26.20
2018-12-14T05:11:42.607Z,26.00
2018-12-14T05:12:42.504Z,26.10
2018-12-14T05:13:42.567Z,26.50
2018-12-14T05:14:42.565Z,26.50
2018-12-14T05:15:42.519Z,29.20
2018-12-14T05:16:42.527Z,26.30
2018-12-14T05:17:42.550Z,27.20
2018-12-14T05:18:42.557Z,26.70
2018-12-14T05:19:42.566Z,26.20
2018-12-14T05:20:42.566Z,26.20
2018-12-14T05:21:42.587Z,27.10
2018-12-14T05:22:42.586Z,26.50
2018-12-14T05:23:42.586Z,26.40
2018-12-14T05:24:42.542Z,27.10
2018-12-14T05:25:42.541Z,26.70
2018-12-14T05:26:42.554Z,27.40
2018-12-14T05:27:42.582Z,26.30
2018-12-14T05:28:42.607Z,26.30
2018-12-14T05:29:42.594Z,26.90
2018-12-14T05:30:42.563Z,28.10
2018-12-14T05:31:42.567Z,27.30
2018-12-14T05:32:42.609Z,26.80
2018-12-14T05:33:42.562Z,26.90
2018-12-14T05:34:42.606Z,27.10
2018-12-14T05:35:42.602Z,27.30
2018-12-14T05:36:42.610Z,27.00
2018-12-14T05:37:42.588Z,27.00
2018-12-14T05:38:42.617Z,28.70
2018-12-14T05:39:43.067Z,28.60
2018-12-14T05:40:42.589Z,28.40
2018-12-14T05:41:42.590Z,28.00
2018-12-14T05:42:42.590Z,27.70
2018-12-14T05:43:42.605Z,28.60
2018-12-14T05:44:42.672Z,27.80
2018-12-14T05:45:42.664Z,28.90
2018-12-14T05:46:42.637Z,28.60
2018-12-14T05:47:42.633Z,28.30
2018-12-14T05:48:42.643Z,28.70
2018-12-14T05:49:42.651Z,30.10
2018-12-14T05:50:42.659Z,30.50
2018-12-14T05:51:42.644Z,29.40
2018-12-14T05:52:42.617Z,30.50
2018-12-14T05:53:42.621Z,28.80
2018-12-14T05:54:42.637Z,29.80
2018-12-14T05:55:42.703Z,29.80
2018-12-14T05:56:42.653Z,27.90
2018-12-14T05:57:42.652Z,30.00
2018-12-14T05:58:42.655Z,29.30
2018-12-14T05:59:42.631Z,28.10
2018-12-14T06:00:42.824Z,29.20
2018-12-14T06:01:42.689Z,28.90
2018-12-14T06:02:42.641Z,27.80
2018-12-14T06:03:42.694Z,27.90
2018-12-14T06:04:42.652Z,27.50
2018-12-14T06:05:42.667Z,27.60
2018-12-14T06:06:42.660Z,27.40
2018-12-14T06:07:42.863Z,27.60
2018-12-14T06:08:42.652Z,27.30
2018-12-14T06:09:42.658Z,27.60
2018-12-14T06:10:42.698Z,27.60
2018-12-14T06:11:42.691Z,28.80
2018-12-14T06:12:42.742Z,28.50
2018-12-14T06:13:42.690Z,27.50
2018-12-14T06:14:42.698Z,27.90
2018-12-14T06:15:42.673Z,27.60
2018-12-14T06:16:42.707Z,28.20
2018-12-14T06:17:42.725Z,27.70
2018-12-14T06:18:42.745Z,27.30
2018-12-14T06:19:42.698Z,27.20
2018-12-14T06:20:42.769Z,27.60
2018-12-14T06:21:42.727Z,27.20
2018-12-14T06:22:42.756Z,26.60
2018-12-14T06:23:42.716Z,26.80
2018-12-14T06:24:42.766Z,26.80
2018-12-14T06:25:42.737Z,27.30
2018-12-14T06:26:42.753Z,27.40
2018-12-14T06:27:42.756Z,27.60
2018-12-14T06:28:42.795Z,27.10
2018-12-14T06:29:42.723Z,27.50
2018-12-14T06:30:42.720Z,27.30
2018-12-14T06:31:42.756Z,27.10
2018-12-14T06:32:42.790Z,27.10
2018-12-14T06:33:42.750Z,26.80
2018-12-14T06:34:42.765Z,25.60
2018-12-14T06:35:42.746Z,28.40
2018-12-14T06:36:42.746Z,26.90
2018-12-14T06:37:42.773Z,27.50
2018-12-14T06:38:42.780Z,27.10
2018-12-14T06:39:42.792Z,26.00
2018-12-14T06:40:42.785Z,27.40
2018-12-14T06:41:42.757Z,26.80
2018-12-14T06:42:42.794Z,27.00
2018-12-14T06:43:42.776Z,26.50
2018-12-14T06:44:43.179Z,26.90
2018-12-14T06:45:42.811Z,27.50
2018-12-14T06:46:42.833Z,28.00
2018-12-14T06:47:42.824Z,27.10
2018-12-14T06:48:42.768Z,27.60
2018-12-14T06:49:42.801Z,27.30
2018-12-14T06:50:43.122Z,27.00
2018-12-14T06:51:42.790Z,27.00
2018-12-14T06:52:42.815Z,27.50
2018-12-14T06:53:42.810Z,27.70
2018-12-14T06:54:42.775Z,27.90
2018-12-14T06:55:43.019Z,27.00
2018-12-14T06:56:42.799Z,26.80
2018-12-14T06:57:42.807Z,27.50
2018-12-14T06:58:42.809Z,25.80
2018-12-14T06:59:42.818Z,25.60
2018-12-14T07:00:42.816Z,26.30
2018-12-14T07:01:42.906Z,26.30
2018-12-14T07:02:42.871Z,26.20
2018-12-14T07:03:42.836Z,25.90
2018-12-14T07:04:42.837Z,25.60
2018-12-14T07:05:42.897Z,25.80
2018-12-14T07:06:42.836Z,25.20
2018-12-14T07:07:42.889Z,25.50
2018-12-14T07:08:42.880Z,25.70
2018-12-14T07:09:42.819Z,25.50
2018-12-14T07:10:42.884Z,25.10
2018-12-14T07:11:42.902Z,26.20
2018-12-14T07:12:42.845Z,25.80
2018-12-14T07:13:42.870Z,25.40
2018-12-14T07:14:42.867Z,25.20
2018-12-14T07:15:42.878Z,24.70
2018-12-14T07:16:42.896Z,24.90
2018-12-14T07:17:42.916Z,25.80
2018-12-14T07:18:42.879Z,24.50
2018-12-14T07:19:42.851Z,24.80
2018-12-14T07:20:42.875Z,25.60
2018-12-14T07:21:42.872Z,24.70
2018-12-14T07:22:42.890Z,25.40
2018-12-14T07:23:42.856Z,25.40
2018-12-14T07:24:42.887Z,25.70
2018-12-14T07:25:42.956Z,26.10
2018-12-14T07:26:42.888Z,25.90
2018-12-14T07:27:42.900Z,25.30
2018-12-14T07:28:42.971Z,24.70
2018-12-14T07:29:42.880Z,25.80
2018-12-14T07:30:42.879Z,25.10
2018-12-14T07:31:42.953Z,25.90
2018-12-14T07:32:42.908Z,25.30
2018-12-14T07:33:42.961Z,26.60
2018-12-14T07:34:43.213Z,25.40
2018-12-14T07:35:43.115Z,25.00
2018-12-14T07:36:43.174Z,26.80
2018-12-14T07:37:42.919Z,24.70
2018-12-14T07:38:48.118Z,26.00
2018-12-14T07:39:42.896Z,26.00
2018-12-14T07:40:42.919Z,26.20
2018-12-14T07:41:42.932Z,24.80
2018-12-14T07:42:42.934Z,24.90
2018-12-14T07:43:42.932Z,25.50
2018-12-14T07:44:43.051Z,25.40
2018-12-14T07:45:43.003Z,25.10
2018-12-14T07:46:42.931Z,25.40
2018-12-14T07:47:42.953Z,25.60
2018-12-14T07:48:42.942Z,26.40
2018-12-14T07:49:42.966Z,25.20
2018-12-14T07:50:42.948Z,26.90
2018-12-14T07:51:42.950Z,27.50
2018-12-14T07:52:42.992Z,26.30
2018-12-14T07:53:42.951Z,26.00
2018-12-14T07:54:42.958Z,26.90
2018-12-14T07:55:42.973Z,26.40
2018-12-14T07:56:42.951Z,27.80
2018-12-14T07:57:42.961Z,26.90
2018-12-14T07:58:42.946Z,27.30
2018-12-14T07:59:43.036Z,26.80
2018-12-14T08:00:42.958Z,27.50
2018-12-14T08:01:42.962Z,26.20
2018-12-14T08:02:43.019Z,28.10
2018-12-14T08:03:42.979Z,27.90
2018-12-14T08:04:42.986Z,27.80
2018-12-14T08:05:42.988Z,28.20
2018-12-14T08:06:42.973Z,26.90
2018-12-14T08:07:43.005Z,27.60
2018-12-14T08:08:42.995Z,27.60
2018-12-14T08:09:43.013Z,28.30
2018-12-14T08:10:43.005Z,30.20
2018-12-14T08:11:43.299Z,29.00
2018-12-14T08:12:43.038Z,27.80
2018-12-14T08:13:43.025Z,27.90
2018-12-14T08:14:43.003Z,28.50
2018-12-14T08:15:43.003Z,27.90
2018-12-14T08:16:43.010Z,28.30
2018-12-14T08:17:43.005Z,27.80
2018-12-14T08:18:43.023Z,28.70
2018-12-14T08:19:43.025Z,28.10
2018-12-14T08:20:43.032Z,29.30
2018-12-14T08:21:43.026Z,28.00
2018-12-14T08:22:43.284Z,28.90
2018-12-14T08:23:43.061Z,27.90
2018-12-14T08:24:43.105Z,27.20
2018-12-14T08:25:43.070Z,28.20
2018-12-14T08:26:43.085Z,28.80
2018-12-14T08:27:43.078Z,27.30
2018-12-14T08:28:43.022Z,28.50
2018-12-14T08:29:43.026Z,27.70
2018-12-14T08:30:43.061Z,26.30
2018-12-14T08:31:43.064Z,27.70
2018-12-14T08:32:43.086Z,27.70
2018-12-14T08:33:43.116Z,26.60
2018-12-14T08:34:43.046Z,27.30
2018-12-14T08:35:43.038Z,28.00
2018-12-14T08:36:43.062Z,27.30
2018-12-14T08:37:43.081Z,29.30
2018-12-14T08:38:43.052Z,26.50
2018-12-14T08:39:43.152Z,28.70
2018-12-14T08:40:43.070Z,30.80
2018-12-14T08:41:43.073Z,26.80
2018-12-14T08:42:43.069Z,25.90
2018-12-14T08:43:43.125Z,25.00
2018-12-14T08:44:43.092Z,27.20
2018-12-14T08:45:43.081Z,27.30
2018-12-14T08:46:43.105Z,26.20
2018-12-14T08:47:43.107Z,27.30
2018-12-14T08:48:43.109Z,25.10
2018-12-14T08:49:43.076Z,26.30
2018-12-14T08:50:43.077Z,25.40
2018-12-14T08:51:43.619Z,26.20
2018-12-14T08:52:43.101Z,26.20
2018-12-14T08:53:43.132Z,26.80
2018-12-14T08:54:43.113Z,28.30
2018-12-14T08:55:43.153Z,27.40
2018-12-14T08:56:43.096Z,26.80
2018-12-14T08:57:43.172Z,24.60
2018-12-14T08:58:43.123Z,26.70
2018-12-14T08:59:43.142Z,25.70
2018-12-14T09:00:43.107Z,25.10
2018-12-14T09:01:43.256Z,26.00
2018-12-14T09:02:43.177Z,25.70
2018-12-14T09:03:43.114Z,25.10
2018-12-14T09:04:43.162Z,25.10
2018-12-14T09:05:43.157Z,25.80
2018-12-14T09:06:43.130Z,25.20
2018-12-14T09:07:43.148Z,26.00
2018-12-14T09:08:43.137Z,24.80
2018-12-14T09:09:43.152Z,25.40
2018-12-14T09:10:43.281Z,24.30
2018-12-14T09:11:43.147Z,25.20
2018-12-14T09:12:43.160Z,25.30
2018-12-14T09:13:47.910Z,24.70
2018-12-14T09:14:43.233Z,25.60
2018-12-14T09:15:43.150Z,24.70
2018-12-14T09:16:43.169Z,24.60
2018-12-14T09:17:43.156Z,24.70
2018-12-14T09:18:43.207Z,23.70
2018-12-14T09:19:43.176Z,24.10
2018-12-14T09:20:43.186Z,24.10
2018-12-14T09:21:43.193Z,24.40
2018-12-14T09:22:43.175Z,21.50
2018-12-14T09:23:43.159Z,22.60
2018-12-14T09:24:43.190Z,23.60
2018-12-14T09:25:43.165Z,22.70
2018-12-14T09:26:43.194Z,23.90
2018-12-14T09:27:43.206Z,23.30
2018-12-14T09:28:43.179Z,23.20
2018-12-14T09:29:43.230Z,24.10
2018-12-14T09:30:43.210Z,23.90
2018-12-14T09:31:43.209Z,23.30
2018-12-14T09:32:43.222Z,24.80
2018-12-14T09:33:43.213Z,25.00
2018-12-14T09:34:43.218Z,23.00
2018-12-14T09:35:43.217Z,23.30
2018-12-14T09:36:43.287Z,22.90
2018-12-14T09:37:43.218Z,21.90
2018-12-14T09:38:43.222Z,23.30
2018-12-14T09:39:43.315Z,23.20
2018-12-14T09:40:43.244Z,23.10
2018-12-14T09:41:43.240Z,22.80
2018-12-14T09:42:43.222Z,22.30
2018-12-14T09:43:43.234Z,24.40
2018-12-14T09:44:43.240Z,26.30
2018-12-14T09:45:43.259Z,21.20
2018-12-14T09:46:43.231Z,22.40
2018-12-14T09:47:43.264Z,23.70
2018-12-14T09:48:43.246Z,26.00
2018-12-14T09:49:43.292Z,25.00
2018-12-14T09:50:43.360Z,22.80
2018-12-14T09:51:43.236Z,24.10
2018-12-14T09:52:43.253Z,22.10
2018-12-14T09:53:43.250Z,22.00
2018-12-14T09:54:43.261Z,23.50
2018-12-14T09:55:43.354Z,22.50
2018-12-14T09:56:43.258Z,23.60
2018-12-14T09:57:43.269Z,22.40
2018-12-14T09:58:43.273Z,20.40
2018-12-14T09:59:43.266Z,23.50
2018-12-14T10:00:43.325Z,25.20
2018-12-14T10:01:43.296Z,25.00
2018-12-14T10:02:43.285Z,23.10
2018-12-14T10:03:43.310Z,22.50
2018-12-14T10:04:43.308Z,22.30
2018-12-14T10:05:43.276Z,21.70
2018-12-14T10:06:43.481Z,20.70
2018-12-14T10:07:46.816Z,21.80
2018-12-14T10:08:43.315Z,22.20
2018-12-14T10:09:43.302Z,19.50
2018-12-14T10:10:43.304Z,20.00
2018-12-14T10:11:43.306Z,19.50
2018-12-14T10:12:43.371Z,19.90
2018-12-14T10:13:43.329Z,20.80
2018-12-14T10:14:43.308Z,21.60
2018-12-14T10:15:43.320Z,20.30
2018-12-14T10:16:43.326Z,18.80
2018-12-14T10:17:43.361Z,20.40
2018-12-14T10:18:43.323Z,21.50
2018-12-14T10:19:43.326Z,20.90
2018-12-14T10:20:43.362Z,18.20
2018-12-14T10:21:43.338Z,19.90
2018-12-14T10:22:43.315Z,19.70
2018-12-14T10:23:44.687Z,20.10
2018-12-14T10:24:43.380Z,20.50
2018-12-14T10:25:43.357Z,17.40
2018-12-14T10:26:43.376Z,17.00
2018-12-14T10:27:43.347Z,17.30
2018-12-14T10:28:43.366Z,18.00
2018-12-14T10:29:43.377Z,17.70
2018-12-14T10:30:43.357Z,16.90
2018-12-14T10:31:43.348Z,17.20
2018-12-14T10:32:43.410Z,16.90
2018-12-14T10:33:43.427Z,16.80
2018-12-14T10:34:43.442Z,16.70
2018-12-14T10:35:43.367Z,16.60
2018-12-14T10:36:43.375Z,16.90
2018-12-14T10:37:43.370Z,15.30
2018-12-14T10:38:43.388Z,15.00
2018-12-14T10:39:43.403Z,14.50
2018-12-14T10:40:43.434Z,15.80
2018-12-14T10:41:43.387Z,15.70
2018-12-14T10:42:43.399Z,14.80
2018-12-14T10:43:43.432Z,14.90
2018-12-14T10:44:43.437Z,14.60
2018-12-14T10:45:43.414Z,14.90
2018-12-14T10:46:43.399Z,14.60
2018-12-14T10:47:43.458Z,12.70
2018-12-14T10:48:43.416Z,13.90
2018-12-14T10:49:43.465Z,11.80
2018-12-14T10:50:43.399Z,12.00
2018-12-14T10:51:43.410Z,13.20
2018-12-14T10:52:43.414Z,13.70
2018-12-14T10:53:43.730Z,13.70
2018-12-14T10:54:43.516Z,13.30
2018-12-14T10:55:43.469Z,12.20
2018-12-14T10:56:43.436Z,12.30
2018-12-14T10:57:43.478Z,12.30
2018-12-14T10:58:43.445Z,13.60
2018-12-14T10:59:43.452Z,13.60
2018-12-14T11:00:43.495Z,13.10
2018-12-14T11:01:43.471Z,13.30
2018-12-14T11:02:43.473Z,12.60
2018-12-14T11:03:43.481Z,12.60
2018-12-14T11:04:43.458Z,14.80
2018-12-14T11:05:43.480Z,15.70
2018-12-14T11:06:43.692Z,12.20
2018-12-14T11:07:43.476Z,12.10
2018-12-14T11:08:43.500Z,11.00
2018-12-14T11:09:43.508Z,12.50
2018-12-14T11:10:43.487Z,11.40
2018-12-14T11:11:43.512Z,11.20
2018-12-14T11:12:43.526Z,11.20
2018-12-14T11:13:43.466Z,10.90
2018-12-14T11:14:43.493Z,11.50
2018-12-14T11:15:43.582Z,11.80
2018-12-14T11:16:43.484Z,10.90
2018-12-14T11:17:43.570Z,11.50
2018-12-14T11:18:43.546Z,11.10
2018-12-14T11:19:43.503Z,11.80
2018-12-14T11:20:43.518Z,10.80
2018-12-14T11:21:43.512Z,12.00
2018-12-14T11:22:43.597Z,11.10
2018-12-14T11:23:43.550Z,11.20
2018-12-14T11:24:43.557Z,11.10
2018-12-14T11:25:43.510Z,10.80
2018-12-14T11:26:43.528Z,11.10
2018-12-14T11:27:43.553Z,11.50
2018-12-14T11:28:43.572Z,11.40
2018-12-14T11:29:43.612Z,12.20
2018-12-14T11:30:43.549Z,11.20
2018-12-14T11:31:43.563Z,11.10
2018-12-14T11:32:43.569Z,11.40
2018-12-14T11:33:43.552Z,11.70
2018-12-14T11:34:43.613Z,11.00
2018-12-14T11:35:43.551Z,11.40
2018-12-14T11:36:43.567Z,11.70
2018-12-14T11:37:43.560Z,11.20
2018-12-14T11:38:43.564Z,11.80
2018-12-14T11:39:43.601Z,11.70
2018-12-14T11:40:43.550Z,11.50
2018-12-14T11:41:43.639Z,11.90
2018-12-14T11:42:43.697Z,11.60
2018-12-14T11:43:43.617Z,11.50
2018-12-14T11:44:43.569Z,11.30
2018-12-14T11:45:43.633Z,11.20
2018-12-14T11:46:43.590Z,11.80
2018-12-14T11:47:43.585Z,11.70
2018-12-14T11:48:43.593Z,12.10
2018-12-14T11:49:43.612Z,12.20
2018-12-14T11:50:43.601Z,11.20
2018-12-14T11:51:43.631Z,11.70
2018-12-14T11:52:43.687Z,11.10
2018-12-14T11:53:43.612Z,11.70
2018-12-14T11:54:43.623Z,12.00
2018-12-14T11:55:43.687Z,12.30
2018-12-14T11:56:43.630Z,11.10
2018-12-14T11:57:43.651Z,11.80
2018-12-14T11:58:43.632Z,11.20
2018-12-14T11:59:43.644Z,10.70
2018-12-14T12:00:43.667Z,11.30
2018-12-14T12:01:43.643Z,10.60
2018-12-14T12:02:43.707Z,10.00
2018-12-14T12:03:43.630Z,10.40
2018-12-14T12:04:43.775Z,10.70
2018-12-14T12:05:43.692Z,10.60
2018-12-14T12:06:43.628Z,10.00
2018-12-14T12:07:43.650Z,10.70
2018-12-14T12:08:43.814Z,10.70
2018-12-14T12:09:43.688Z,10.90
2018-12-14T12:10:43.707Z,10.90
2018-12-14T12:11:43.677Z,10.80
2018-12-14T12:12:43.651Z,11.00
2018-12-14T12:13:43.657Z,13.90
2018-12-14T12:14:43.747Z,11.90
2018-12-14T12:15:43.736Z,11.60
2018-12-14T12:16:43.703Z,11.80
2018-12-14T12:17:49.260Z,11.10
2018-12-14T12:18:43.692Z,12.40
2018-12-14T12:19:43.694Z,12.60
2018-12-14T12:20:43.707Z,11.90
2018-12-14T12:21:43.744Z,11.50
2018-12-14T12:22:43.696Z,11.30
2018-12-14T12:23:43.714Z,11.30
2018-12-14T12:24:43.743Z,12.10
2018-12-14T12:25:43.727Z,11.60
2018-12-14T12:26:43.763Z,11.20
2018-12-14T12:27:43.744Z,11.20
2018-12-14T12:28:43.717Z,12.40
2018-12-14T12:29:43.713Z,13.00
2018-12-14T12:30:43.770Z,12.90
2018-12-14T12:31:43.742Z,11.60
2018-12-14T12:32:43.748Z,11.80
2018-12-14T12:33:43.770Z,11.80
2018-12-14T12:34:43.885Z,11.80
2018-12-14T12:35:43.742Z,11.60
2018-12-14T12:36:43.798Z,11.40
2018-12-14T12:37:43.773Z,11.40
2018-12-14T12:38:43.749Z,10.70
2018-12-14T12:39:43.782Z,10.70
2018-12-14T12:40:43.772Z,11.40
2018-12-14T12:41:43.773Z,10.20
2018-12-14T12:42:43.779Z,10.40
2018-12-14T12:43:43.824Z,11.30
2018-12-14T12:44:43.771Z,10.70
2018-12-14T12:45:43.800Z,11.00
2018-12-14T12:46:43.842Z,10.20
2018-12-14T12:47:43.795Z,9.80
2018-12-14T12:48:43.780Z,10.30
2018-12-14T12:49:43.775Z,12.40
2018-12-14T12:50:43.816Z,11.20
2018-12-14T12:51:43.838Z,12.00
2018-12-14T12:52:43.819Z,11.70